Time;durP1;ratioP1;P1;durP2;ratioP2;P2;SDS_P1;SDS_P2;PMS_P1;PMS_P2;Temp;Humidity;BMP_temperature;BMP_pressure;BME280_temperature;BME280_humidity;BME280_pressure;Samples;Min_cycle;Max_cycle;Signal;HPM_P1;HPM_P2
2022/12/07 00:01:20;;;;;;;5.70;3.60;;;21.20;70.90;;;;;;5043256;28;20458;-33
2022/12/07 00:03:47;;;;;;;5.10;3.50;;;21.20;70.80;;;;;;5041038;28;20466;-35
2022/12/07 00:06:16;;;;;;;6.93;4.00;;;21.20;70.70;;;;;;5040175;28;20458;-33
2022/12/07 00:08:43;;;;;;;5.80;4.30;;;21.30;70.80;;;;;;5042732;28;20454;-35
2022/12/07 00:11:12;;;;;;;4.23;3.23;;;21.30;70.70;;;;;;5049249;28;20481;-33
2022/12/07 00:13:40;;;;;;;6.23;3.33;;;21.20;70.60;;;;;;5045463;28;20833;-34
2022/12/07 00:16:09;;;;;;;5.03;3.20;;;21.20;70.60;;;;;;5042678;28;20825;-33
2022/12/07 00:18:36;;;;;;;8.53;4.10;;;21.20;70.60;;;;;;5048421;28;20457;-34
2022/12/07 00:21:04;;;;;;;5.00;3.47;;;21.20;70.60;;;;;;5044780;28;20485;-35
2022/12/07 00:23:31;;;;;;;6.30;3.77;;;21.20;70.40;;;;;;5039944;28;20466;-35
2022/12/07 00:26:04;;;;;;;5.80;3.70;;;21.20;70.50;;;;;;5048819;28;20992;-33
2022/12/07 00:28:33;;;;;;;5.23;3.60;;;21.20;70.50;;;;;;5044756;28;20465;-36
2022/12/07 00:31:02;;;;;;;5.23;3.20;;;21.20;70.50;;;;;;5046385;28;20548;-35
2022/12/07 00:33:29;;;;;;;3.90;3.33;;;21.20;70.50;;;;;;5048108;28;20465;-34
2022/12/07 00:35:57;;;;;;;6.00;3.03;;;21.20;70.40;;;;;;5044893;28;20462;-33
2022/12/07 00:38:23;;;;;;;4.80;3.63;;;21.20;70.40;;;;;;5046476;28;20461;-34
2022/12/07 00:40:55;;;;;;;6.30;3.37;;;21.20;70.50;;;;;;5047735;28;20829;-33
2022/12/07 00:43:22;;;;;;;4.15;2.80;;;21.20;70.40;;;;;;5042177;28;20462;-33
2022/12/07 00:45:50;;;;;;;4.32;3.38;;;21.20;70.40;;;;;;5042260;28;20203;-36
2022/12/07 00:48:17;;;;;;;3.17;2.70;;;21.20;70.40;;;;;;5048112;28;20195;-34
2022/12/07 00:50:44;;;;;;;3.90;2.70;;;21.20;70.40;;;;;;5041417;28;20484;-34
2022/12/07 00:53:11;;;;;;;3.90;3.03;;;21.20;70.40;;;;;;5047052;28;20493;-34
2022/12/07 00:55:38;;;;;;;8.07;3.60;;;21.20;70.40;;;;;;5040891;28;20466;-35
2022/12/07 00:58:04;;;;;;;3.07;2.60;;;21.20;70.30;;;;;;5047664;28;20988;-34
2022/12/07 01:00:31;;;;;;;4.97;3.50;;;21.20;70.30;;;;;;5045195;28;20450;-33
2022/12/07 01:02:59;;;;;;;3.47;2.97;;;21.20;70.30;;;;;;5045907;28;20465;-34
2022/12/07 01:05:26;;;;;;;5.43;3.27;;;21.20;70.20;;;;;;5046057;28;20454;-33
2022/12/07 01:07:53;;;;;;;6.00;3.40;;;21.20;70.30;;;;;;5040537;28;20834;-33
2022/12/07 01:10:20;;;;;;;6.13;3.13;;;21.20;70.20;;;;;;5045822;28;20473;-35
2022/12/07 01:12:46;;;;;;;3.80;2.60;;;21.20;70.20;;;;;;5045270;28;20469;-34
2022/12/07 01:15:13;;;;;;;3.57;3.13;;;21.20;70.20;;;;;;5045308;28;20447;-34
2022/12/07 01:17:40;;;;;;;3.67;2.85;;;21.20;70.20;;;;;;5048998;28;20453;-35
2022/12/07 01:20:09;;;;;;;3.00;2.70;;;21.20;70.30;;;;;;5041715;28;20227;-34
2022/12/07 01:22:37;;;;;;;3.30;3.00;;;21.20;70.20;;;;;;5028710;28;20458;-33
2022/12/07 01:25:05;;;;;;;4.60;3.10;;;21.20;70.20;;;;;;5043151;28;20288;-34
2022/12/07 01:27:32;;;;;;;4.00;2.73;;;21.20;70.20;;;;;;5039967;28;20658;-34
2022/12/07 01:29:59;;;;;;;3.00;2.70;;;21.20;70.20;;;;;;5044474;28;20465;-33
2022/12/07 01:32:26;;;;;;;4.30;2.72;;;21.20;70.20;;;;;;5041628;28;20482;-35
2022/12/07 01:34:53;;;;;;;4.53;3.67;;;21.20;70.10;;;;;;5046211;28;20210;-34
2022/12/07 01:37:21;;;;;;;3.97;3.25;;;21.20;70.30;;;;;;5042756;28;20462;-33
2022/12/07 01:39:49;;;;;;;4.10;2.90;;;21.20;70.10;;;;;;5045049;28;20203;-34
2022/12/07 01:42:16;;;;;;;4.40;3.30;;;21.20;70.20;;;;;;5047698;28;20806;-33
2022/12/07 01:45:23;;;;;;;3.73;2.70;;;21.20;70.20;;;;;;5039384;28;20992;-34
2022/12/07 01:47:53;;;;;;;5.45;2.72;;;21.20;70.20;;;;;;5048434;28;20462;-34
2022/12/07 01:50:20;;;;;;;4.30;2.60;;;21.20;70.20;;;;;;5046021;28;20195;-34
2022/12/07 01:52:50;;;;;;;3.70;2.63;;;21.20;70.10;;;;;;5026946;28;20478;-33
2022/12/07 01:55:18;;;;;;;3.17;2.67;;;21.20;70.10;;;;;;5041630;28;20973;-33
2022/12/07 01:57:48;;;;;;;4.10;3.13;;;21.10;70.00;;;;;;5045204;28;20202;-34
2022/12/07 02:00:16;;;;;;;3.57;2.73;;;21.20;70.10;;;;;;5044797;28;20457;-37
2022/12/07 02:02:46;;;;;;;3.30;2.97;;;21.20;70.10;;;;;;5043878;28;20487;-35
2022/12/07 02:05:13;;;;;;;3.90;2.67;;;21.20;70.10;;;;;;5037277;28;20473;-35
2022/12/07 02:07:41;;;;;;;4.03;2.50;;;21.20;70.10;;;;;;5039648;28;20458;-34
2022/12/07 02:10:21;;;;;;;4.33;2.90;;;21.10;70.00;;;;;;5047948;28;20450;-34
2022/12/07 02:12:53;;;;;;;7.33;3.03;;;21.20;70.10;;;;;;5049274;28;20477;-34
2022/12/07 02:15:22;;;;;;;3.80;3.17;;;21.20;70.00;;;;;;5040288;28;20469;-34
2022/12/07 02:18:00;;;;;;;5.10;2.80;;;21.20;70.00;;;;;;5045821;28;20971;-33
2022/12/07 02:20:31;;;;;;;3.30;2.67;;;21.10;70.00;;;;;;5046245;28;20468;-36
2022/12/07 02:23:28;;;;;;;3.47;3.17;;;21.10;70.00;;;;;;5043018;28;20469;-33
2022/12/07 02:26:10;;;;;;;3.27;2.30;;;21.10;70.00;;;;;;5043683;28;20458;-33
2022/12/07 02:28:46;;;;;;;3.00;2.50;;;21.10;70.00;;;;;;5052937;28;20458;-36
2022/12/07 02:31:19;;;;;;;2.40;2.20;;;21.10;70.00;;;;;;5045816;28;20826;-34
2022/12/07 02:33:54;;;;;;;3.07;2.77;;;21.10;70.00;;;;;;5047074;28;20497;-34
2022/12/07 02:36:26;;;;;;;2.63;2.40;;;21.10;70.00;;;;;;5045059;28;20984;-33
2022/12/07 02:39:00;;;;;;;3.43;2.83;;;21.10;70.00;;;;;;5051364;28;20461;-34
2022/12/07 02:41:33;;;;;;;2.60;2.40;;;21.10;70.00;;;;;;5043441;28;20457;-33
2022/12/07 02:44:05;;;;;;;2.95;2.58;;;21.10;70.00;;;;;;5050228;28;20462;-34
2022/12/07 02:46:36;;;;;;;3.80;2.50;;;21.10;70.00;;;;;;5047372;28;20277;-33
2022/12/07 02:49:05;;;;;;;3.17;2.83;;;21.10;70.00;;;;;;5046346;28;20459;-36
2022/12/07 02:51:33;;;;;;;3.43;2.77;;;21.10;70.00;;;;;;5037533;28;20470;-33
2022/12/07 02:54:00;;;;;;;2.93;2.37;;;21.10;70.00;;;;;;5041703;28;20463;-35
2022/12/07 02:56:32;;;;;;;2.50;2.30;;;21.10;70.00;;;;;;5040439;28;20458;-36
2022/12/07 02:59:11;;;;;;;2.30;2.10;;;21.10;70.00;;;;;;5037707;28;20461;-34
2022/12/07 03:01:46;;;;;;;3.00;2.53;;;21.10;70.00;;;;;;5039286;28;20460;-35
2022/12/07 03:04:28;;;;;;;2.50;2.30;;;21.10;69.80;;;;;;5049392;28;20461;-33
2022/12/07 03:07:00;;;;;;;2.50;1.90;;;21.10;70.00;;;;;;5036430;28;20474;-33
2022/12/07 03:09:33;;;;;;;2.70;2.40;;;21.10;70.70;;;;;;5043302;28;20484;-33
2022/12/07 03:12:08;;;;;;;3.30;2.47;;;21.10;69.90;;;;;;5046806;28;20508;-36
2022/12/07 03:14:42;;;;;;;3.47;2.10;;;21.10;69.90;;;;;;5042983;28;20839;-34
2022/12/07 03:17:13;;;;;;;3.17;2.30;;;21.10;69.90;;;;;;5047805;28;20453;-34
2022/12/07 03:19:42;;;;;;;3.88;2.20;;;21.10;70.00;;;;;;5049983;28;20469;-34
2022/12/07 03:22:11;;;;;;;2.17;1.95;;;21.10;69.80;;;;;;5047491;28;20222;-34
2022/12/07 03:24:42;;;;;;;3.10;2.20;;;21.10;69.80;;;;;;5045920;28;20202;-35
2022/12/07 03:27:12;;;;;;;2.33;2.10;;;21.10;69.90;;;;;;5050892;28;20468;-33
2022/12/07 03:29:47;;;;;;;3.20;2.90;;;21.10;69.90;;;;;;5042312;28;20969;-34
2022/12/07 03:32:16;;;;;;;1.93;1.73;;;21.10;70.00;;;;;;5044459;28;20828;-34
2022/12/07 03:34:50;;;;;;;3.40;2.72;;;21.10;69.90;;;;;;5045913;28;20446;-34
2022/12/07 03:37:23;;;;;;;2.97;2.10;;;21.10;69.90;;;;;;5044791;28;20187;-34
2022/12/07 03:40:02;;;;;;;2.40;2.10;;;21.10;69.90;;;;;;5057830;28;20482;-33
2022/12/07 03:42:30;;;;;;;2.53;1.95;;;21.10;69.80;;;;;;5050129;28;20210;-33
2022/12/07 03:44:59;;;;;;;2.50;2.30;;;21.10;69.80;;;;;;5046361;28;20202;-33
2022/12/07 03:47:32;;;;;;;2.17;1.97;;;21.10;69.80;;;;;;5042647;28;20202;-34
2022/12/07 03:50:03;;;;;;;2.20;1.70;;;21.10;69.80;;;;;;5036903;28;20814;-35
2022/12/07 03:52:36;;;;;;;2.35;2.03;;;21.10;69.80;;;;;;5037019;28;20473;-33
2022/12/07 03:55:09;;;;;;;3.20;2.17;;;21.10;69.80;;;;;;5032539;28;20199;-34
2022/12/07 03:57:38;;;;;;;2.13;1.67;;;21.10;69.70;;;;;;5032587;28;21098;-34
2022/12/07 04:00:10;;;;;;;5.00;2.63;;;21.10;69.80;;;;;;5040358;28;20200;-38
2022/12/07 04:02:37;;;;;;;3.33;2.33;;;21.10;69.80;;;;;;5046431;28;20953;-34
2022/12/07 04:05:05;;;;;;;2.83;2.20;;;21.10;69.80;;;;;;5048893;28;20195;-34
2022/12/07 04:07:32;;;;;;;2.65;2.00;;;21.10;69.70;;;;;;5040788;28;20195;-33
2022/12/07 04:09:59;;;;;;;2.08;1.88;;;21.10;69.70;;;;;;5045727;28;20206;-33
2022/12/07 04:12:25;;;;;;;2.95;1.92;;;21.10;69.80;;;;;;5044308;28;20230;-34
2022/12/07 04:14:52;;;;;;;2.40;2.20;;;21.00;69.60;;;;;;5030322;28;20555;-37
2022/12/07 04:17:20;;;;;;;2.90;2.28;;;21.00;69.90;;;;;;5044272;28;20470;-33
2022/12/07 04:19:47;;;;;;;2.83;1.90;;;21.00;69.90;;;;;;5050397;28;20226;-33
2022/12/07 04:22:13;;;;;;;2.50;1.75;;;21.00;70.00;;;;;;5039762;28;20461;-35
2022/12/07 04:24:40;;;;;;;2.50;2.03;;;20.90;70.00;;;;;;5043583;28;20206;-33
2022/12/07 04:27:07;;;;;;;3.67;2.75;;;20.80;70.00;;;;;;5042479;28;20203;-33
2022/12/07 04:29:33;;;;;;;2.53;2.28;;;20.80;70.10;;;;;;5040215;28;20569;-36
2022/12/07 04:32:00;;;;;;;2.10;1.70;;;20.80;70.10;;;;;;5042102;28;20202;-33
2022/12/07 04:34:28;;;;;;;2.42;1.90;;;20.90;70.10;;;;;;5044238;28;20476;-33
2022/12/07 04:36:55;;;;;;;1.63;1.33;;;20.90;70.00;;;;;;5043859;28;20199;-34
2022/12/07 04:39:24;;;;;;;2.33;1.90;;;20.90;70.00;;;;;;5047168;28;20488;-35
2022/12/07 04:41:51;;;;;;;2.20;2.00;;;21.00;70.00;;;;;;5048693;28;20203;-33
2022/12/07 04:44:19;;;;;;;2.83;2.10;;;21.00;69.90;;;;;;5047087;28;20453;-35
2022/12/07 04:46:46;;;;;;;2.22;2.00;;;21.10;69.90;;;;;;5043802;28;20828;-33
2022/12/07 04:49:14;;;;;;;2.20;1.88;;;21.20;69.60;;;;;;5049398;28;20214;-33
2022/12/07 04:51:42;;;;;;;2.27;2.07;;;21.20;69.50;;;;;;5045311;28;20197;-34
2022/12/07 04:54:09;;;;;;;2.00;1.80;;;21.30;69.30;;;;;;5054873;28;20477;-33
2022/12/07 04:56:36;;;;;;;2.03;1.83;;;21.30;69.20;;;;;;5045834;28;20465;-34
2022/12/07 04:59:04;;;;;;;1.93;1.77;;;21.30;69.30;;;;;;5041669;28;20454;-34
2022/12/07 05:01:31;;;;;;;2.50;1.80;;;21.30;69.30;;;;;;5041498;28;20484;-35
2022/12/07 05:03:58;;;;;;;2.30;1.73;;;21.30;69.30;;;;;;5037158;28;21038;-33
2022/12/07 05:06:25;;;;;;;3.47;2.30;;;21.30;69.40;;;;;;5046995;28;20465;-34
2022/12/07 05:08:53;;;;;;;1.80;1.43;;;21.30;69.40;;;;;;5045676;28;20806;-33
2022/12/07 05:14:01;;;;;;;2.57;1.80;;;21.20;69.40;;;;;;5043741;28;20589;-35
2022/12/07 05:16:28;;;;;;;2.07;1.40;;;21.20;69.50;;;;;;5046837;28;20464;-38
2022/12/07 05:18:55;;;;;;;1.90;1.70;;;21.20;69.50;;;;;;5046377;28;20461;-35
2022/12/07 05:21:22;;;;;;;2.13;1.83;;;21.20;69.60;;;;;;5043978;28;20458;-34
2022/12/07 05:23:49;;;;;;;2.63;1.80;;;21.10;69.50;;;;;;5046122;28;20464;-34
2022/12/07 05:26:17;;;;;;;2.13;1.93;;;21.20;69.60;;;;;;5049244;28;20830;-34
2022/12/07 05:28:44;;;;;;;2.00;1.73;;;21.10;69.60;;;;;;5047683;28;20458;-33
2022/12/07 05:31:10;;;;;;;2.00;1.80;;;21.10;69.60;;;;;;5039634;28;20576;-33
2022/12/07 05:33:37;;;;;;;2.90;1.98;;;21.10;69.60;;;;;;5044752;28;20901;-34
2022/12/07 05:36:05;;;;;;;2.10;1.90;;;21.10;69.70;;;;;;5044442;28;20195;-33
2022/12/07 05:38:32;;;;;;;2.97;2.27;;;21.10;69.70;;;;;;5038453;28;20457;-33
2022/12/07 05:41:02;;;;;;;2.30;1.87;;;21.00;69.60;;;;;;5038973;28;20870;-34
2022/12/07 05:43:30;;;;;;;2.53;1.97;;;21.00;69.60;;;;;;5049746;28;20761;-34
2022/12/07 05:45:57;;;;;;;2.30;1.67;;;21.00;69.70;;;;;;5040436;28;20463;-35
2022/12/07 05:48:24;;;;;;;2.47;1.80;;;21.00;69.70;;;;;;5042948;28;20987;-33
2022/12/07 05:50:52;;;;;;;2.10;1.70;;;21.00;69.80;;;;;;5047970;28;20666;-34
2022/12/07 05:53:19;;;;;;;1.80;1.60;;;20.90;69.60;;;;;;5049576;28;20521;-33
2022/12/07 05:55:46;;;;;;;2.53;1.50;;;21.00;69.80;;;;;;5051822;28;20783;-33
2022/12/07 06:00:58;;;;;;;2.03;1.30;;;21.00;69.90;;;;;;5040539;28;20995;-33
2022/12/07 06:03:25;;;;;;;1.40;1.10;;;21.00;69.90;;;;;;5049474;28;20199;-33
2022/12/07 06:05:53;;;;;;;1.80;1.53;;;21.00;69.90;;;;;;5048588;28;20462;-34
2022/12/07 06:08:19;;;;;;;1.80;1.30;;;21.00;69.90;;;;;;5045509;28;20450;-34
2022/12/07 06:12:33;;;;;;;2.83;1.90;;;21.00;69.80;;;;;;5042252;28;20599;-34
2022/12/07 06:13:34;;;;;;;2.33;1.75;;;21.00;69.90;;;;;;5043166;28;20901;-34
2022/12/07 06:16:02;;;;;;;2.30;1.37;;;21.00;69.80;;;;;;5045340;28;20341;-33
2022/12/07 06:18:29;;;;;;;2.08;1.50;;;21.00;69.80;;;;;;5043918;28;20195;-34
2022/12/07 06:20:55;;;;;;;1.67;1.57;;;21.00;69.80;;;;;;5040552;28;20225;-33
2022/12/07 06:23:22;;;;;;;1.90;1.60;;;21.10;69.80;;;;;;5049631;28;20468;-33
2022/12/07 06:25:49;;;;;;;2.30;1.90;;;21.00;69.70;;;;;;5041843;28;20274;-35
2022/12/07 06:28:15;;;;;;;1.60;1.37;;;21.10;69.80;;;;;;5042493;28;20468;-36
2022/12/07 06:30:42;;;;;;;1.53;1.43;;;21.10;69.80;;;;;;5047271;28;20454;-34
2022/12/07 06:33:10;;;;;;;1.70;1.40;;;21.10;69.80;;;;;;5042165;28;20819;-33
2022/12/07 06:35:37;;;;;;;2.50;1.80;;;21.10;69.80;;;;;;5044750;28;20462;-34
2022/12/07 06:38:03;;;;;;;2.00;1.33;;;21.10;69.80;;;;;;5047323;28;20461;-34
2022/12/07 06:40:30;;;;;;;1.57;1.47;;;21.10;69.80;;;;;;5040806;28;20996;-34
2022/12/07 06:42:57;;;;;;;2.03;1.40;;;21.00;69.80;;;;;;5043590;28;20480;-33
2022/12/07 06:45:23;;;;;;;1.83;1.60;;;21.00;70.60;;;;;;5043499;28;20568;-34
2022/12/07 06:47:50;;;;;;;1.43;1.33;;;21.00;69.80;;;;;;5044288;28;20191;-35
2022/12/07 06:50:18;;;;;;;1.87;1.60;;;21.00;69.80;;;;;;5048745;28;20516;-34
2022/12/07 06:52:45;;;;;;;1.47;1.27;;;21.00;69.80;;;;;;5047887;28;20462;-33
2022/12/07 06:55:12;;;;;;;2.00;1.37;;;21.00;69.90;;;;;;5040410;28;20461;-33
2022/12/07 06:57:38;;;;;;;2.40;1.67;;;21.00;69.80;;;;;;5044972;28;20490;-34
2022/12/07 07:00:06;;;;;;;2.10;1.83;;;21.00;69.90;;;;;;5047684;28;20988;-35
2022/12/07 07:02:33;;;;;;;1.87;1.47;;;21.00;69.90;;;;;;5047865;28;20469;-34
2022/12/07 07:05:00;;;;;;;2.50;1.80;;;21.00;69.90;;;;;;5043248;28;20469;-34
2022/12/07 07:07:28;;;;;;;2.03;1.30;;;21.00;70.00;;;;;;5044513;28;20458;-35
2022/12/07 07:09:55;;;;;;;1.67;1.53;;;20.90;69.90;;;;;;5042499;28;20462;-34
2022/12/07 07:12:21;;;;;;;1.50;1.40;;;21.00;70.00;;;;;;5047939;28;20457;-33
2022/12/07 07:14:48;;;;;;;1.90;1.63;;;20.90;69.90;;;;;;5046914;28;20476;-33
2022/12/07 07:17:15;;;;;;;1.90;1.60;;;20.90;69.90;;;;;;5046503;28;20469;-34
2022/12/07 07:19:42;;;;;;;2.23;1.73;;;20.90;70.00;;;;;;5049975;28;20219;-34
2022/12/07 07:22:08;;;;;;;2.57;1.80;;;20.90;70.10;;;;;;5041792;28;20469;-33
2022/12/07 07:24:36;;;;;;;1.30;1.20;;;20.80;70.00;;;;;;5050935;28;20837;-34
2022/12/07 07:27:03;;;;;;;1.85;1.70;;;20.80;69.90;;;;;;5050345;28;20468;-34
2022/12/07 07:29:30;;;;;;;1.95;1.50;;;20.80;69.80;;;;;;5043427;28;20195;-34
2022/12/07 07:31:56;;;;;;;1.47;1.33;;;20.80;69.80;;;;;;5038732;28;20202;-34
2022/12/07 07:34:23;;;;;;;2.47;1.63;;;20.70;69.90;;;;;;5044933;28;20485;-34
2022/12/07 07:36:50;;;;;;;1.38;1.23;;;20.70;70.10;;;;;;5047753;28;20460;-33
2022/12/07 07:39:16;;;;;;;1.27;1.07;;;20.60;70.20;;;;;;5040450;28;20198;-34
2022/12/07 07:41:45;;;;;;;1.52;1.10;;;20.70;70.20;;;;;;5029889;28;20465;-35
2022/12/07 07:44:11;;;;;;;2.63;2.27;;;20.70;70.20;;;;;;5036962;28;20199;-34
2022/12/07 07:46:38;;;;;;;1.70;1.20;;;20.60;70.10;;;;;;5041335;28;20457;-33
2022/12/07 07:49:05;;;;;;;1.45;1.02;;;20.70;70.10;;;;;;5045740;28;20199;-34
2022/12/07 07:51:31;;;;;;;2.80;1.57;;;20.80;70.00;;;;;;5039794;28;20196;-38
2022/12/07 07:53:58;;;;;;;2.40;1.60;;;20.90;69.90;;;;;;5030647;28;20474;-33
2022/12/07 07:56:25;;;;;;;1.80;1.40;;;21.00;69.70;;;;;;5044880;28;20191;-33
2022/12/07 07:58:54;;;;;;;2.35;1.70;;;21.00;69.50;;;;;;5042858;28;20228;-35
2022/12/07 08:01:21;;;;;;;2.40;1.00;;;21.20;69.50;;;;;;5041058;28;20195;-34
2022/12/07 08:03:48;;;;;;;1.52;1.42;;;21.30;69.30;;;;;;5051494;28;20818;-36
2022/12/07 08:06:14;;;;;;;2.47;1.40;;;21.30;69.10;;;;;;5046457;28;20190;-34
2022/12/07 08:08:41;;;;;;;1.43;1.30;;;21.30;69.10;;;;;;5047902;28;20469;-34
2022/12/07 08:11:10;;;;;;;1.53;1.33;;;21.40;69.10;;;;;;5044769;28;20980;-33
2022/12/07 08:13:36;;;;;;;1.60;1.40;;;21.30;69.00;;;;;;5051157;28;20481;-35
2022/12/07 08:16:08;;;;;;;1.30;1.20;;;21.30;69.10;;;;;;5044493;28;20845;-34
2022/12/07 08:18:37;;;;;;;2.60;1.67;;;21.30;69.20;;;;;;5051604;28;20503;-34
2022/12/07 08:21:04;;;;;;;2.00;1.50;;;21.30;69.20;;;;;;5048936;28;20989;-34
2022/12/07 08:23:31;;;;;;;1.50;1.40;;;21.30;69.20;;;;;;5042434;28;20826;-37
2022/12/07 08:26:01;;;;;;;1.33;1.10;;;21.20;69.20;;;;;;5040326;28;20823;-36
2022/12/07 08:28:28;;;;;;;1.70;1.60;;;21.20;69.20;;;;;;5035658;28;22222;-37
2022/12/07 08:30:59;;;;;;;2.50;1.90;;;21.20;69.20;;;;;;5037151;28;20481;-34
2022/12/07 08:33:27;;;;;;;1.60;1.20;;;21.20;69.50;;;;;;5038238;28;20470;-35
2022/12/07 08:35:54;;;;;;;1.90;1.13;;;21.10;69.60;;;;;;5039402;28;20461;-34
2022/12/07 08:38:21;;;;;;;1.33;1.17;;;21.10;69.50;;;;;;5043475;28;20455;-34
2022/12/07 08:40:55;;;;;;;2.23;1.40;;;21.10;69.50;;;;;;5040151;28;20462;-36
2022/12/07 08:43:22;;;;;;;1.50;1.10;;;21.10;69.50;;;;;;5047046;28;20531;-34
2022/12/07 08:45:49;;;;;;;1.50;1.40;;;21.10;69.60;;;;;;5040179;28;20473;-34
2022/12/07 08:48:21;;;;;;;1.30;1.10;;;21.00;69.50;;;;;;5043779;28;20461;-35
2022/12/07 08:50:49;;;;;;;1.50;1.40;;;21.00;69.60;;;;;;5036330;28;20465;-33
2022/12/07 08:53:16;;;;;;;1.37;1.27;;;21.00;69.60;;;;;;5041747;28;20529;-36
2022/12/07 08:55:44;;;;;;;1.30;1.10;;;21.00;69.70;;;;;;5039949;28;20458;-37
2022/12/07 08:58:11;;;;;;;1.53;1.30;;;21.00;69.80;;;;;;5038361;28;20465;-35
2022/12/07 09:00:38;;;;;;;1.50;1.20;;;20.90;70.10;;;;;;5038533;28;20458;-32
2022/12/07 09:03:05;;;;;;;2.10;1.23;;;20.90;70.00;;;;;;5034764;28;20458;-39
2022/12/07 09:05:33;;;;;;;7.47;1.30;;;20.80;70.10;;;;;;5044753;28;20465;-38
2022/12/07 09:08:02;;;;;;;1.93;1.23;;;20.90;70.50;;;;;;5038163;28;20466;-40
2022/12/07 09:10:29;;;;;;;4.17;1.40;;;20.90;70.80;;;;;;5040443;28;20462;-45
2022/12/07 09:13:00;;;;;;;3.40;1.45;;;20.90;70.90;;;;;;5048965;28;20468;-41
2022/12/07 09:15:27;;;;;;;3.47;1.13;;;21.00;71.00;;;;;;5042456;28;20718;-39
2022/12/07 09:17:53;;;;;;;1.77;1.50;;;20.90;71.50;;;;;;5049398;28;20975;-38
2022/12/07 09:20:20;;;;;;;1.35;1.15;;;20.90;71.40;;;;;;5049318;28;20469;-39
2022/12/07 09:22:47;;;;;;;1.92;1.33;;;20.90;71.20;;;;;;5050024;28;20206;-43
2022/12/07 09:25:15;;;;;;;1.87;1.10;;;21.00;71.00;;;;;;5051998;28;20642;-38
2022/12/07 09:27:42;;;;;;;2.07;1.30;;;21.10;71.00;;;;;;5052995;28;20462;-39
2022/12/07 09:30:09;;;;;;;1.43;1.10;;;21.10;70.80;;;;;;5051588;28;20528;-41
2022/12/07 09:32:36;;;;;;;3.43;1.67;;;21.20;70.80;;;;;;5054867;28;20469;-39
2022/12/07 09:35:03;;;;;;;17.02;1.98;;;21.10;70.90;;;;;;5047309;28;20675;-41
2022/12/07 09:37:31;;;;;;;3.20;1.90;;;21.00;71.00;;;;;;5048869;28;20199;-40
2022/12/07 09:39:58;;;;;;;3.97;1.80;;;21.00;71.20;;;;;;5045436;28;20454;-40
2022/12/07 09:42:30;;;;;;;1.98;1.38;;;21.00;71.40;;;;;;5046934;28;20472;-41
2022/12/07 09:44:59;;;;;;;2.53;1.58;;;21.10;71.20;;;;;;5048844;28;20199;-37
2022/12/07 09:47:27;;;;;;;2.13;1.20;;;21.20;71.00;;;;;;5044095;28;20809;-34
2022/12/07 09:49:56;;;;;;;4.37;1.70;;;21.30;71.00;;;;;;5036477;28;20453;-42
2022/12/07 09:52:28;;;;;;;4.50;1.40;;;21.30;70.80;;;;;;5047698;28;20465;-39
2022/12/07 09:54:55;;;;;;;2.40;1.63;;;21.20;71.00;;;;;;5046405;28;20223;-37
2022/12/07 09:57:28;;;;;;;11.70;1.90;;;21.10;70.40;;;;;;5054520;28;20453;-43
2022/12/07 09:59:57;;;;;;;7.00;1.60;;;21.10;70.30;;;;;;5060525;28;20457;-41
2022/12/07 10:02:29;;;;;;;5.00;1.77;;;21.10;70.10;;;;;;5049794;28;20252;-39
2022/12/07 10:04:58;;;;;;;1.93;1.60;;;21.10;70.20;;;;;;5034453;28;20447;-43
2022/12/07 10:07:25;;;;;;;2.83;1.97;;;21.00;69.70;;;;;;5043724;28;20463;-39
2022/12/07 10:09:52;;;;;;;1.70;1.57;;;21.00;69.30;;;;;;5053733;28;20461;-41
2022/12/07 10:12:18;;;;;;;2.20;1.57;;;21.10;70.00;;;;;;5053660;28;20960;-39
2022/12/07 10:14:56;;;;;;;3.38;1.58;;;21.00;69.20;;;;;;5045736;28;20485;-41
2022/12/07 10:17:35;;;;;;;2.80;1.43;;;21.00;69.10;;;;;;5045966;28;20198;-36
2022/12/07 10:20:16;;;;;;;2.33;1.33;;;20.90;69.00;;;;;;5036953;28;21252;-43
2022/12/07 10:22:56;;;;;;;2.03;1.50;;;21.00;69.20;;;;;;5048376;28;20461;-41
2022/12/07 10:25:26;;;;;;;3.47;1.48;;;21.00;69.10;;;;;;5042354;28;20457;-39
2022/12/07 10:28:01;;;;;;;2.28;1.70;;;20.90;68.90;;;;;;5043548;28;20562;-37
2022/12/07 10:30:30;;;;;;;2.10;1.40;;;20.90;68.90;;;;;;5038156;28;20202;-42
2022/12/07 10:32:57;;;;;;;3.50;1.83;;;20.90;69.10;;;;;;5040228;28;20449;-40
2022/12/07 10:35:26;;;;;;;2.10;1.73;;;20.90;69.10;;;;;;5041971;28;20500;-41
2022/12/07 10:37:55;;;;;;;3.10;1.92;;;20.90;69.40;;;;;;5045211;28;20453;-40
2022/12/07 10:40:29;;;;;;;4.23;1.80;;;20.90;69.50;;;;;;5038009;28;20195;-41
2022/12/07 10:43:04;;;;;;;1.55;1.30;;;20.90;69.20;;;;;;5040928;28;20563;-38
2022/12/07 10:45:33;;;;;;;3.03;1.50;;;20.90;69.10;;;;;;5041443;28;20206;-39
2022/12/07 10:48:06;;;;;;;7.25;1.55;;;20.90;68.80;;;;;;5045345;28;20826;-37
2022/12/07 10:51:00;;;;;;;2.30;1.30;;;20.90;70.10;;;;;;5043011;28;20199;-50
2022/12/07 10:53:51;;;;;;;5.32;1.70;;;21.10;70.50;;;;;;5036993;28;20458;-46
2022/12/07 10:56:33;;;;;;;2.37;1.43;;;21.20;70.20;;;;;;5045995;28;20575;-41
2022/12/07 10:59:18;;;;;;;3.20;1.93;;;21.30;70.80;;;;;;5047305;28;20465;-40
2022/12/07 11:01:52;;;;;;;1.60;1.40;;;21.40;71.00;;;;;;5038384;28;20465;-45
2022/12/07 11:04:36;;;;;;;4.15;1.65;;;21.40;71.30;;;;;;5041404;28;20461;-42
2022/12/07 11:07:11;;;;;;;3.00;1.63;;;21.30;71.70;;;;;;5046201;28;20199;-41
2022/12/07 11:10:01;;;;;;;3.30;1.73;;;21.30;71.70;;;;;;5046869;28;20191;-39
2022/12/07 11:12:42;;;;;;;2.80;1.47;;;21.30;72.00;;;;;;5049241;28;20794;-39
2022/12/07 11:15:19;;;;;;;2.37;1.37;;;21.30;72.10;;;;;;5045329;28;21012;-41
2022/12/07 11:17:57;;;;;;;1.30;1.20;;;21.30;72.00;;;;;;5051300;28;20465;-40
2022/12/07 11:20:37;;;;;;;2.03;1.20;;;21.30;72.20;;;;;;5051109;28;20453;-41
2022/12/07 11:23:14;;;;;;;2.43;1.90;;;21.30;72.10;;;;;;5045486;28;20945;-40
2022/12/07 11:25:48;;;;;;;4.70;2.10;;;21.30;72.20;;;;;;5053092;28;20442;-40
2022/12/07 11:28:34;;;;;;;2.23;1.33;;;21.40;72.00;;;;;;5046518;28;20813;-40
2022/12/07 11:31:10;;;;;;;4.10;1.40;;;21.40;72.10;;;;;;5046479;28;20462;-41
2022/12/07 11:33:45;;;;;;;3.10;1.63;;;21.30;72.10;;;;;;5051148;28;20437;-43
2022/12/07 11:36:26;;;;;;;2.10;1.35;;;21.30;72.30;;;;;;5049091;28;20852;-42
2022/12/07 11:38:57;;;;;;;1.50;1.40;;;21.40;72.50;;;;;;5050226;28;20210;-43
2022/12/07 11:41:29;;;;;;;2.47;1.10;;;21.40;72.50;;;;;;5042511;28;20203;-46
2022/12/07 11:43:59;;;;;;;2.30;1.43;;;21.30;72.60;;;;;;5035138;28;21101;-39
2022/12/07 11:46:30;;;;;;;3.50;1.37;;;21.30;72.60;;;;;;5038206;28;20493;-40
2022/12/07 11:49:11;;;;;;;2.17;0.90;;;21.30;72.90;;;;;;5034870;28;20465;-42
2022/12/07 11:51:40;;;;;;;2.63;1.90;;;21.30;72.80;;;;;;5043758;28;20871;-42
2022/12/07 11:54:15;;;;;;;4.40;1.90;;;21.20;72.80;;;;;;5048046;28;20460;-41
2022/12/07 11:56:41;;;;;;;2.60;2.00;;;21.30;73.20;;;;;;5040328;28;20459;-42
2022/12/07 11:59:14;;;;;;;4.13;1.90;;;21.30;73.20;;;;;;5042043;28;20463;-41
2022/12/07 12:01:53;;;;;;;3.00;1.40;;;21.30;73.10;;;;;;5044597;28;20969;-40
2022/12/07 12:04:30;;;;;;;1.70;1.40;;;21.20;73.20;;;;;;5037280;28;20465;-41
2022/12/07 12:06:57;;;;;;;2.53;1.90;;;21.20;73.50;;;;;;5035042;28;20466;-40
2022/12/07 12:09:29;;;;;;;4.13;1.37;;;21.20;73.50;;;;;;5047512;28;20465;-42
2022/12/07 12:12:17;;;;;;;1.63;1.20;;;21.30;73.50;;;;;;5034253;28;20449;-41
2022/12/07 12:14:59;;;;;;;6.13;1.90;;;21.30;74.20;;;;;;5043673;28;20470;-40
2022/12/07 12:17:53;;;;;;;3.65;1.50;;;21.40;74.00;;;;;;5044464;28;20834;-45
2022/12/07 12:20:27;;;;;;;1.75;1.05;;;21.50;73.70;;;;;;5040744;28;20218;-43
2022/12/07 12:22:59;;;;;;;1.80;1.40;;;21.60;73.70;;;;;;5039972;28;20221;-41
2022/12/07 12:25:28;;;;;;;3.73;1.57;;;21.70;73.70;;;;;;5035067;28;20471;-40
2022/12/07 12:27:58;;;;;;;2.25;1.55;;;21.70;73.90;;;;;;5049697;28;20813;-40
2022/12/07 12:30:30;;;;;;;2.27;1.43;;;21.70;74.20;;;;;;5041548;28;20202;-41
2022/12/07 12:33:07;;;;;;;2.30;1.50;;;21.70;73.90;;;;;;5047331;28;20457;-41
2022/12/07 12:35:37;;;;;;;2.10;1.60;;;21.80;73.50;;;;;;5039743;28;20478;-44
2022/12/07 12:38:34;;;;;;;2.97;1.60;;;21.80;73.40;;;;;;5040078;28;20470;-44
2022/12/07 12:41:01;;;;;;;3.33;1.80;;;21.80;73.40;;;;;;5035555;28;20938;-41
2022/12/07 12:43:50;;;;;;;2.77;1.20;;;21.80;73.50;;;;;;5035905;28;20511;-44
2022/12/07 12:46:51;;;;;;;2.53;1.37;;;21.80;73.40;;;;;;5037890;28;20479;-40
2022/12/07 12:50:09;;;;;;;1.60;1.30;;;21.80;73.50;;;;;;5045716;28;20452;-43
2022/12/07 12:52:57;;;;;;;2.07;1.60;;;21.80;73.70;;;;;;5031136;28;20476;-40
2022/12/07 12:55:57;;;;;;;2.47;1.80;;;21.70;73.60;;;;;;5036425;28;21020;-40
2022/12/07 12:58:32;;;;;;;4.57;1.43;;;21.70;73.60;;;;;;5041767;28;20991;-42
2022/12/07 13:01:48;;;;;;;5.27;2.07;;;21.70;73.60;;;;;;5042775;28;20512;-40
2022/12/07 13:04:40;;;;;;;1.80;1.20;;;21.70;73.70;;;;;;4974274;28;20456;-41
2022/12/07 13:07:13;;;;;;;2.77;1.63;;;21.70;73.90;;;;;;5033882;28;20458;-39
2022/12/07 13:09:45;;;;;;;3.33;1.50;;;21.60;73.90;;;;;;5043324;28;20507;-40
2022/12/07 13:12:15;;;;;;;2.53;1.50;;;21.70;73.90;;;;;;5050658;28;20439;-39